Austin, Nevada
Current Conditions -  °F | °C
As of 11:56 AM on Friday 31 Oct 2014 (Local Time) from KNFL Reporting Station
Scattered Clouds Scattered Clouds  
Wind Chill: 67°   Ceiling: Unl
Heat Index: 67°   Visibility: 10mi
Dew Point: 22°   Wind: 0mph
Humidity: 18%   Direction: NA
Pressure: 29.81"   Gusts: NA
Location:  39.49°N, 117.07°W
Report Text: KNFL 311856Z 00000KT 10SM FEW080 FEW140 SCT230 SCT280 19/M06 A2981 RMK AO2 SLP073 ACSL DSNT SE-SW-W T01941056
Loading
Personal Weather Stations






























Interactive Weather Map
Tropical Storm Tracking
New forecast layout! Learn more

10-Day Weather Forecast

Advertisements
Track Severe Weather on mobile